createdAt,value
2023-05-15T00:00:15.721Z,13.20
2023-05-15T00:05:33.220Z,13.20
2023-05-15T00:10:44.917Z,13.10
2023-05-15T00:16:14.030Z,13.00
2023-05-15T00:21:30.163Z,13.00
2023-05-15T01:25:14.217Z,12.20
2023-05-15T01:30:29.139Z,12.20
2023-05-15T01:36:09.987Z,12.20
2023-05-15T01:41:54.414Z,12.20
2023-05-15T01:47:02.077Z,12.20
2023-05-15T01:52:33.540Z,12.30
2023-05-15T01:57:39.803Z,12.20
2023-05-15T02:03:03.194Z,12.20
2023-05-15T02:14:18.980Z,12.20
2023-05-15T05:09:37.093Z,11.80
2023-05-15T05:14:45.122Z,11.70
2023-05-15T05:19:56.405Z,11.60
2023-05-15T05:25:00.376Z,11.60
2023-05-15T05:30:17.499Z,11.60
2023-05-15T05:35:23.793Z,11.60
2023-05-15T05:40:31.225Z,11.70
2023-05-15T05:46:08.647Z,11.70
2023-05-15T05:51:11.941Z,11.80
2023-05-15T05:57:05.631Z,11.80
2023-05-15T06:02:49.318Z,11.70
2023-05-15T06:14:00.940Z,11.60
2023-05-15T06:19:12.308Z,11.60
2023-05-15T06:24:19.121Z,11.60
2023-05-15T06:29:22.471Z,11.70
2023-05-15T06:34:33.032Z,11.70
2023-05-15T06:39:42.479Z,11.70
2023-05-15T06:45:01.319Z,11.70
2023-05-15T06:50:21.988Z,11.70
2023-05-15T06:55:30.701Z,11.60
2023-05-15T07:00:34.186Z,11.60
2023-05-15T07:05:41.083Z,11.60
2023-05-15T07:10:43.734Z,11.50
2023-05-15T07:15:56.841Z,11.40
2023-05-15T07:21:26.582Z,11.30
2023-05-15T07:26:40.991Z,11.30
2023-05-15T07:31:50.152Z,11.10
2023-05-15T07:36:53.104Z,10.90
2023-05-15T07:42:14.132Z,10.80
2023-05-15T07:47:29.497Z,10.80
2023-05-15T08:04:59.746Z,11.00
2023-05-15T08:10:36.865Z,11.10
2023-05-15T08:21:35.496Z,11.10
2023-05-15T08:26:39.278Z,11.10
2023-05-15T08:31:45.818Z,11.10
2023-05-15T08:36:53.067Z,11.10
2023-05-15T08:42:23.765Z,11.20
2023-05-15T08:53:13.877Z,11.30
2023-05-15T08:58:26.173Z,11.50
2023-05-15T09:09:49.447Z,12.00
2023-05-15T09:15:16.242Z,12.20
2023-05-15T09:20:40.927Z,12.60
2023-05-15T09:25:57.167Z,13.00
2023-05-15T09:31:08.252Z,13.30
2023-05-15T09:36:30.487Z,13.30
2023-05-15T09:42:37.164Z,13.70
2023-05-15T09:54:33.423Z,13.40
2023-05-15T09:59:43.297Z,13.50
2023-05-15T10:05:43.701Z,13.70
2023-05-15T10:16:47.987Z,14.50
2023-05-15T10:45:51.777Z,14.90
2023-05-15T10:51:16.462Z,15.40
2023-05-15T10:56:40.028Z,15.50
2023-05-15T11:02:02.413Z,14.90
2023-05-15T11:07:19.346Z,15.20
2023-05-15T11:12:25.498Z,14.90
2023-05-15T11:17:34.067Z,15.00
2023-05-15T11:22:38.888Z,15.10
2023-05-15T11:27:46.973Z,15.10
2023-05-15T11:33:01.780Z,15.30
2023-05-15T11:38:18.726Z,15.30
2023-05-15T11:43:31.912Z,15.30
2023-05-15T11:48:54.456Z,15.60
2023-05-15T11:53:58.925Z,16.00
2023-05-15T11:59:02.419Z,15.90
2023-05-15T12:04:13.535Z,16.10
2023-05-15T12:09:27.457Z,16.50
2023-05-15T12:14:31.190Z,15.60
2023-05-15T12:19:38.149Z,15.30
2023-05-15T12:24:41.421Z,15.80
2023-05-15T12:29:44.027Z,16.20
2023-05-15T12:34:46.561Z,15.40
2023-05-15T12:39:56.552Z,15.50
2023-05-15T12:44:58.678Z,15.70
2023-05-15T12:50:01.214Z,16.00
2023-05-15T12:55:04.405Z,15.30
2023-05-15T13:00:10.337Z,15.30
2023-05-15T13:05:13.570Z,15.60
2023-05-15T13:10:15.865Z,15.90
2023-05-15T13:15:26.237Z,15.70
2023-05-15T13:20:30.218Z,15.30
2023-05-15T13:25:32.693Z,15.80
2023-05-15T13:30:35.614Z,15.30
2023-05-15T13:35:38.679Z,15.10
2023-05-15T13:40:40.919Z,14.90
2023-05-15T13:45:43.130Z,14.80
2023-05-15T13:50:45.931Z,14.60
2023-05-15T13:55:48.100Z,14.40
2023-05-15T14:00:50.374Z,14.30
2023-05-15T14:05:52.841Z,14.50
2023-05-15T14:10:54.942Z,14.70
2023-05-15T14:15:58.516Z,14.50
2023-05-15T14:21:00.769Z,14.50
2023-05-15T14:26:02.873Z,14.40
2023-05-15T14:31:05.067Z,14.30
2023-05-15T14:36:07.852Z,14.50
2023-05-15T14:41:09.989Z,14.60
2023-05-15T14:46:12.275Z,15.20
2023-05-15T14:51:15.823Z,15.50
2023-05-15T14:56:18.842Z,16.20
2023-05-15T15:01:21.291Z,15.90
2023-05-15T15:06:23.411Z,15.80
2023-05-15T15:11:25.678Z,15.00
2023-05-15T15:16:27.934Z,15.10
2023-05-15T15:21:30.898Z,15.50
2023-05-15T15:26:33.175Z,15.60
2023-05-15T15:31:35.498Z,15.40
2023-05-15T15:36:41.577Z,15.20
2023-05-15T15:41:44.703Z,15.50
2023-05-15T15:46:46.782Z,15.90
2023-05-15T15:51:48.931Z,16.40
2023-05-15T15:56:51.910Z,16.50
2023-05-15T16:01:53.994Z,17.00
2023-05-15T16:06:56.115Z,16.80
2023-05-15T16:11:58.288Z,16.40
2023-05-15T16:17:03.997Z,15.80
2023-05-15T16:22:06.260Z,15.90
2023-05-15T16:27:08.387Z,16.30
2023-05-15T16:32:10.539Z,16.90
2023-05-15T16:37:12.772Z,17.30
2023-05-15T16:42:14.825Z,16.20
2023-05-15T16:47:16.989Z,16.70
2023-05-15T16:52:19.557Z,16.60
2023-05-15T16:57:21.681Z,16.50
2023-05-15T17:02:23.902Z,16.30
2023-05-15T17:07:26.294Z,16.20
2023-05-15T17:12:28.375Z,16.70
2023-05-15T17:17:30.644Z,16.30
2023-05-15T17:22:32.857Z,15.70
2023-05-15T17:27:44.496Z,15.50
2023-05-15T17:32:46.934Z,16.10
2023-05-15T17:37:52.206Z,15.60
2023-05-15T17:42:54.355Z,15.40
2023-05-15T17:48:02.918Z,15.00
2023-05-15T17:53:08.056Z,14.80
2023-05-15T17:58:10.225Z,14.60
2023-05-15T18:03:12.520Z,14.40
2023-05-15T18:08:16.365Z,14.30
2023-05-15T18:13:19.099Z,14.30
2023-05-15T18:18:21.367Z,14.20
2023-05-15T18:23:23.502Z,13.90
2023-05-15T18:28:25.843Z,13.80
2023-05-15T18:33:28.428Z,13.70
2023-05-15T18:38:30.625Z,13.40
2023-05-15T18:43:32.799Z,13.30
2023-05-15T18:48:37.388Z,13.10
2023-05-15T18:53:42.540Z,13.10
2023-05-15T18:58:45.558Z,12.90
2023-05-15T19:03:47.953Z,12.80
2023-05-15T19:08:50.229Z,12.70
2023-05-15T19:13:52.368Z,12.60
2023-05-15T19:18:55.655Z,12.50
2023-05-15T19:23:57.923Z,12.50
2023-05-15T19:29:00.133Z,12.40
2023-05-15T19:34:02.281Z,12.40
2023-05-15T19:39:04.667Z,12.30
2023-05-15T19:44:08.278Z,12.20
2023-05-15T19:49:11.247Z,12.10
2023-05-15T19:54:13.521Z,12.00
2023-05-15T19:59:15.786Z,12.00
2023-05-15T20:04:19.136Z,11.80
2023-05-15T20:09:21.399Z,11.80
2023-05-15T20:14:23.752Z,11.70
2023-05-15T20:19:26.553Z,11.60
2023-05-15T20:24:28.940Z,11.60
2023-05-15T20:29:31.270Z,11.50
2023-05-15T20:34:34.521Z,11.50
2023-05-15T20:39:36.949Z,11.40
2023-05-15T20:44:39.613Z,11.40
2023-05-15T20:49:45.270Z,11.40
2023-05-15T21:07:04.257Z,11.20
2023-05-15T21:13:10.314Z,11.10
2023-05-15T21:18:47.885Z,11.10
2023-05-15T21:23:57.451Z,11.00
2023-05-15T21:29:13.792Z,11.00
2023-05-15T21:34:21.504Z,11.00
2023-05-15T21:40:12.112Z,11.00
2023-05-15T21:50:43.740Z,11.00
2023-05-15T21:56:23.481Z,11.00
2023-05-15T22:01:27.437Z,10.90
2023-05-15T22:06:30.123Z,10.90
2023-05-15T22:11:32.507Z,10.90
2023-05-15T22:16:35.225Z,10.90
2023-05-15T22:21:37.661Z,10.90
2023-05-15T22:26:39.992Z,10.90
2023-05-15T22:31:42.477Z,10.90
2023-05-15T22:36:55.366Z,10.80
2023-05-15T22:42:08.409Z,10.80
2023-05-15T22:59:41.234Z,10.80
2023-05-15T23:05:20.785Z,10.80
2023-05-15T23:16:33.964Z,10.70
2023-05-15T23:22:23.762Z,10.70
2023-05-15T23:27:48.039Z,10.70
2023-05-15T23:33:09.336Z,10.70
2023-05-15T23:38:51.009Z,10.60
2023-05-15T23:44:12.530Z,10.60
2023-05-15T23:55:21.032Z,10.50
